Rugby, ND

3:06 AM CST on March 03, 2015 (GMT -0600)
Rugby Municipal | Change Station
CLOSE
Current Station
Airport
Location: Rugby,
Elevation: 1549 ft
Nearby Weather Stations
Active Advisory: Wind Advisory

Elev 1549 ft 48.39 °N, 100.02 °W | Updated 11 minutes ago

Overcast
Overcast
9 °F
Feels Like -14 °F
N
29
Wind Variable Wind from NW
Gusts 36 mph

Today
High -- | Low -- °F
--% Chance of Precip.
Yesterday
High -- | Low -- °F
Precip. -- in
7:17 AM 6:26 PM
Waxing Gibbous, 95% visible
Pressure 29.86 in
Visibility 10.0 miles
Clouds Mostly Cloudy 1100 ft
Windchill -14 °F
Dew Point 5 °F
Humidity 85%
Rainfall 0.00 in
Snow Depth Not available.
UV 0 out of 12
Pollen .10 out of 12
Air Quality Not available.
Flu Activity Not available.
METAR KRUG 030855Z AUTO 32025G31KT 10SM BKN011 M13/M15 A2986 RMK AO2

More Conditions Fewer Conditions

Pressure 29.86 in
Visibility 10.0 miles
Clouds Mostly Cloudy 1100 ft
Windchill -14 °F
Dew Point 5 °F
Humidity 85%
Rainfall 0.00 in
Snow Depth Not available.
UV 0 out of 12
Pollen .10 out of 12
Air Quality Not available.
Flu Activity Not available.
METAR KRUG 030855Z AUTO 32025G31KT 10SM BKN011 M13/M15 A2986 RMK AO2

More Conditions Fewer Conditions

10-Day Weather Forecast

Almanac

Astronomy

Mar. 03, 2015 Rise Set
Actual Time
Civil Twilight
Nautical Twilight
Astronomical Twilight
Moon
Length of Visible Light
Length of Day
Tomorrow will be .
, % of the Moon is Illuminated

Today's Extremes

State Highs State Lows

Community

WunderPhotos

Upload Photos

1,802,075 photos uploaded!

WunderBlogs® & News

Nearby

Air Quality

  Air Quality AQ Index Pollutant
Not available.

Snow Depth

Station Depth Elevation

Earthquake Activity

City Distance Mag. Time & Date
Minimum magnitude displayed is 2.5.

Coastal Water Temperatures

Place Temperature

Nearby Weather Stations

Wind Advisory
Statement as of 12:31 AM CST on March 03, 2015

... Wind Advisory remains in effect until 6 PM CST this evening...

* timing... through early Tuesday evening.

* Winds... northwest sustained near 30 mph. Gusts to 40 mph.

* Impacts... difficult driving conditions for high profile
vehicles. Working on elevated structures will be hazardous.
Patchy blowing snow east of the Missouri River.